sensor_id;sensor_type;location;lat;lon;timestamp;noise_LAeq;noise_LA_min;noise_LA_max;noise_LA01;noise_LA95
66335;Laerm;53138;51.496;6.410;2023-10-08T00:00:00;35.72;32.73;42.27;;
66335;Laerm;53138;51.496;6.410;2023-10-08T00:00:30;35.47;32.63;41.91;;
66335;Laerm;53138;51.496;6.410;2023-10-08T00:01:02;42.89;33.89;51.74;;
66335;Laerm;53138;51.496;6.410;2023-10-08T00:01:12;36.59;33.26;41.15;;
66335;Laerm;53138;51.496;6.410;2023-10-08T00:01:24;33.96;32.19;40.71;;
66335;Laerm;53138;51.496;6.410;2023-10-08T00:01:34;35.12;33.12;46.23;;
66335;Laerm;53138;51.496;6.410;2023-10-08T00:01:44;37.38;33.10;54.56;;
66335;Laerm;53138;51.496;6.410;2023-10-08T00:01:54;34.13;32.43;36.06;;
66335;Laerm;53138;51.496;6.410;2023-10-08T00:02:05;34.23;32.44;36.11;;
66335;Laerm;53138;51.496;6.410;2023-10-08T00:02:16;33.62;31.68;35.40;;
66335;Laerm;53138;51.496;6.410;2023-10-08T00:02:32;35.17;32.16;38.37;;
66335;Laerm;53138;51.496;6.410;2023-10-08T00:02:42;34.74;31.75;38.10;;
66335;Laerm;53138;51.496;6.410;2023-10-08T00:02:53;33.45;31.59;37.98;;
66335;Laerm;53138;51.496;6.410;2023-10-08T00:03:03;33.82;32.02;36.18;;
66335;Laerm;53138;51.496;6.410;2023-10-08T00:03:15;35.63;32.73;40.68;;
66335;Laerm;53138;51.496;6.410;2023-10-08T00:03:30;35.31;31.80;47.71;;
66335;Laerm;53138;51.496;6.410;2023-10-08T00:03:43;34.40;32.18;37.84;;
66335;Laerm;53138;51.496;6.410;2023-10-08T00:04:03;34.90;32.60;45.64;;
66335;Laerm;53138;51.496;6.410;2023-10-08T00:04:14;34.09;32.41;36.02;;
66335;Laerm;53138;51.496;6.410;2023-10-08T00:04:28;33.91;32.18;35.76;;
66335;Laerm;53138;51.496;6.410;2023-10-08T00:04:39;34.11;32.12;37.25;;
66335;Laerm;53138;51.496;6.410;2023-10-08T00:04:50;36.87;31.67;39.81;;
66335;Laerm;53138;51.496;6.410;2023-10-08T00:05:04;35.29;32.20;46.11;;
66335;Laerm;53138;51.496;6.410;2023-10-08T00:05:15;35.55;32.26;38.84;;
66335;Laerm;53138;51.496;6.410;2023-10-08T00:05:26;35.48;32.51;39.66;;
66335;Laerm;53138;51.496;6.410;2023-10-08T00:05:37;33.87;31.80;42.69;;
66335;Laerm;53138;51.496;6.410;2023-10-08T00:05:48;33.56;31.71;35.76;;
66335;Laerm;53138;51.496;6.410;2023-10-08T00:06:02;33.64;31.27;42.49;;
66335;Laerm;53138;51.496;6.410;2023-10-08T00:06:17;33.37;31.46;42.11;;
66335;Laerm;53138;51.496;6.410;2023-10-08T00:06:29;33.57;31.40;35.56;;
66335;Laerm;53138;51.496;6.410;2023-10-08T00:06:40;33.88;32.54;36.33;;
66335;Laerm;53138;51.496;6.410;2023-10-08T00:06:50;33.45;31.72;35.17;;
66335;Laerm;53138;51.496;6.410;2023-10-08T00:07:05;33.73;31.89;35.51;;
66335;Laerm;53138;51.496;6.410;2023-10-08T00:07:18;33.67;31.79;37.62;;
66335;Laerm;53138;51.496;6.410;2023-10-08T00:07:31;36.40;33.63;44.89;;
66335;Laerm;53138;51.496;6.410;2023-10-08T00:07:41;43.26;37.58;60.32;;
66335;Laerm;53138;51.496;6.410;2023-10-08T00:07:52;38.63;35.75;44.90;;
66335;Laerm;53138;51.496;6.410;2023-10-08T00:08:06;40.38;34.10;47.00;;
66335;Laerm;53138;51.496;6.410;2023-10-08T00:08:16;35.62;33.61;39.57;;
66335;Laerm;53138;51.496;6.410;2023-10-08T00:08:26;36.43;33.58;40.98;;
66335;Laerm;53138;51.496;6.410;2023-10-08T00:08:37;46.53;36.02;59.88;;
66335;Laerm;53138;51.496;6.410;2023-10-08T00:08:47;46.88;41.82;52.98;;
66335;Laerm;53138;51.496;6.410;2023-10-08T00:08:58;41.12;37.43;45.09;;
66335;Laerm;53138;51.496;6.410;2023-10-08T00:09:11;42.12;37.95;46.12;;
66335;Laerm;53138;51.496;6.410;2023-10-08T00:09:21;38.57;36.01;42.77;;
66335;Laerm;53138;51.496;6.410;2023-10-08T00:09:31;37.45;35.11;41.43;;
66335;Laerm;53138;51.496;6.410;2023-10-08T00:09:45;39.53;34.28;46.49;;
66335;Laerm;53138;51.496;6.410;2023-10-08T00:09:55;47.60;37.67;54.87;;
66335;Laerm;53138;51.496;6.410;2023-10-08T00:10:06;53.66;48.74;55.89;;
66335;Laerm;53138;51.496;6.410;2023-10-08T00:10:16;51.77;49.49;53.56;;
66335;Laerm;53138;51.496;6.410;2023-10-08T00:10:26;49.26;43.76;51.96;;
66335;Laerm;53138;51.496;6.410;2023-10-08T00:10:37;43.11;39.54;45.73;;
66335;Laerm;53138;51.496;6.410;2023-10-08T00:10:51;39.84;36.67;42.17;;
66335;Laerm;53138;51.496;6.410;2023-10-08T00:11:01;36.83;33.65;39.89;;
66335;Laerm;53138;51.496;6.410;2023-10-08T00:11:16;35.18;32.33;48.59;;
66335;Laerm;53138;51.496;6.410;2023-10-08T00:11:27;36.95;32.53;57.50;;
66335;Laerm;53138;51.496;6.410;2023-10-08T00:11:39;33.56;31.54;35.22;;
66335;Laerm;53138;51.496;6.410;2023-10-08T00:11:50;34.60;32.68;36.61;;
66335;Laerm;53138;51.496;6.410;2023-10-08T00:12:04;33.75;31.16;36.26;;
66335;Laerm;53138;51.496;6.410;2023-10-08T00:12:14;33.35;31.71;35.20;;
66335;Laerm;53138;51.496;6.410;2023-10-08T00:12:26;33.83;31.81;35.50;;
66335;Laerm;53138;51.496;6.410;2023-10-08T00:12:38;34.42;32.28;41.82;;
66335;Laerm;53138;51.496;6.410;2023-10-08T00:12:49;33.84;32.20;35.68;;
66335;Laerm;53138;51.496;6.410;2023-10-08T00:13:00;35.08;32.58;37.55;;
66335;Laerm;53138;51.496;6.410;2023-10-08T00:13:11;38.56;34.51;41.76;;
66335;Laerm;53138;51.496;6.410;2023-10-08T00:13:22;40.78;34.56;49.50;;
66335;Laerm;53138;51.496;6.410;2023-10-08T00:13:33;43.87;38.31;49.25;;
66335;Laerm;53138;51.496;6.410;2023-10-08T00:13:53;40.51;34.24;50.09;;
66335;Laerm;53138;51.496;6.410;2023-10-08T00:14:06;41.09;35.14;46.52;;
66335;Laerm;53138;51.496;6.410;2023-10-08T00:14:20;43.45;36.94;50.18;;
66335;Laerm;53138;51.496;6.410;2023-10-08T00:14:31;37.69;33.62;43.14;;
66335;Laerm;53138;51.496;6.410;2023-10-08T00:14:42;36.95;32.57;54.43;;
66335;Laerm;53138;51.496;6.410;2023-10-08T00:14:59;34.96;32.43;43.75;;
66335;Laerm;53138;51.496;6.410;2023-10-08T00:15:10;37.13;35.00;39.94;;
66335;Laerm;53138;51.496;6.410;2023-10-08T00:15:20;36.03;33.61;39.64;;
66335;Laerm;53138;51.496;6.410;2023-10-08T00:15:31;36.16;33.86;38.66;;
66335;Laerm;53138;51.496;6.410;2023-10-08T00:15:42;34.55;31.93;36.85;;
66335;Laerm;53138;51.496;6.410;2023-10-08T00:16:02;35.19;31.41;37.63;;
66335;Laerm;53138;51.496;6.410;2023-10-08T00:16:19;33.78;31.45;40.05;;
66335;Laerm;53138;51.496;6.410;2023-10-08T00:16:31;34.07;32.20;36.96;;
66335;Laerm;53138;51.496;6.410;2023-10-08T00:16:43;35.43;33.06;37.88;;
66335;Laerm;53138;51.496;6.410;2023-10-08T00:16:59;34.33;32.37;37.06;;
66335;Laerm;53138;51.496;6.410;2023-10-08T00:17:10;35.59;33.25;37.51;;
66335;Laerm;53138;51.496;6.410;2023-10-08T00:17:21;34.55;32.63;36.83;;
66335;Laerm;53138;51.496;6.410;2023-10-08T00:17:31;35.34;32.59;37.81;;
66335;Laerm;53138;51.496;6.410;2023-10-08T00:17:41;41.05;35.58;47.79;;
66335;Laerm;53138;51.496;6.410;2023-10-08T00:17:55;41.09;36.31;46.98;;
66335;Laerm;53138;51.496;6.410;2023-10-08T00:18:08;35.32;32.02;39.14;;
66335;Laerm;53138;51.496;6.410;2023-10-08T00:18:22;36.25;33.82;49.54;;
66335;Laerm;53138;51.496;6.410;2023-10-08T00:18:32;36.47;34.18;42.46;;
66335;Laerm;53138;51.496;6.410;2023-10-08T00:18:44;34.69;32.95;39.13;;
66335;Laerm;53138;51.496;6.410;2023-10-08T00:19:01;33.60;31.96;39.89;;
66335;Laerm;53138;51.496;6.410;2023-10-08T00:19:17;34.69;32.34;39.86;;
66335;Laerm;53138;51.496;6.410;2023-10-08T00:19:28;33.99;32.03;35.83;;
66335;Laerm;53138;51.496;6.410;2023-10-08T00:19:45;35.81;32.69;42.25;;
66335;Laerm;53138;51.496;6.410;2023-10-08T00:19:55;35.53;32.19;39.99;;
66335;Laerm;53138;51.496;6.410;2023-10-08T00:20:10;35.97;33.57;44.30;;
66335;Laerm;53138;51.496;6.410;2023-10-08T00:20:24;36.26;32.62;45.51;;
66335;Laerm;53138;51.496;6.410;2023-10-08T00:20:45;35.04;32.01;38.84;;
66335;Laerm;53138;51.496;6.410;2023-10-08T00:21:07;36.99;32.91;42.29;;
66335;Laerm;53138;51.496;6.410;2023-10-08T00:21:21;39.84;35.92;44.74;;
66335;Laerm;53138;51.496;6.410;2023-10-08T00:21:37;41.62;34.84;49.36;;
66335;Laerm;53138;51.496;6.410;2023-10-08T00:21:48;34.86;31.97;36.90;;
66335;Laerm;53138;51.496;6.410;2023-10-08T00:21:59;33.80;31.95;36.79;;
66335;Laerm;53138;51.496;6.410;2023-10-08T00:22:14;34.66;31.60;39.06;;
66335;Laerm;53138;51.496;6.410;2023-10-08T00:22:28;36.21;32.78;40.31;;
66335;Laerm;53138;51.496;6.410;2023-10-08T00:22:41;38.57;35.47;44.62;;
66335;Laerm;53138;51.496;6.410;2023-10-08T00:22:51;35.71;33.56;38.34;;
66335;Laerm;53138;51.496;6.410;2023-10-08T00:23:05;39.12;34.84;43.60;;
66335;Laerm;53138;51.496;6.410;2023-10-08T00:23:17;40.04;35.50;45.67;;
66335;Laerm;53138;51.496;6.410;2023-10-08T00:23:28;38.40;34.20;42.67;;
66335;Laerm;53138;51.496;6.410;2023-10-08T00:23:38;37.90;35.27;41.66;;
66335;Laerm;53138;51.496;6.410;2023-10-08T00:24:07;38.09;34.92;48.99;;
66335;Laerm;53138;51.496;6.410;2023-10-08T00:24:19;35.81;33.08;39.59;;
66335;Laerm;53138;51.496;6.410;2023-10-08T00:24:36;35.08;32.85;39.58;;
66335;Laerm;53138;51.496;6.410;2023-10-08T00:24:51;36.05;34.13;38.82;;
66335;Laerm;53138;51.496;6.410;2023-10-08T00:25:07;37.56;33.22;42.00;;
66335;Laerm;53138;51.496;6.410;2023-10-08T00:25:21;34.88;32.39;39.29;;
66335;Laerm;53138;51.496;6.410;2023-10-08T00:25:31;36.92;34.20;40.04;;
66335;Laerm;53138;51.496;6.410;2023-10-08T00:25:43;35.46;32.54;47.71;;
66335;Laerm;53138;51.496;6.410;2023-10-08T00:25:57;35.12;32.85;44.71;;
66335;Laerm;53138;51.496;6.410;2023-10-08T00:26:08;40.28;33.56;44.36;;
66335;Laerm;53138;51.496;6.410;2023-10-08T00:26:19;38.47;36.29;40.62;;
66335;Laerm;53138;51.496;6.410;2023-10-08T00:26:37;36.63;34.34;39.13;;
66335;Laerm;53138;51.496;6.410;2023-10-08T00:26:50;37.45;34.93;43.01;;
66335;Laerm;53138;51.496;6.410;2023-10-08T00:27:00;41.20;36.31;47.88;;
66335;Laerm;53138;51.496;6.410;2023-10-08T00:27:11;41.35;36.35;47.35;;
66335;Laerm;53138;51.496;6.410;2023-10-08T00:27:24;39.29;34.71;44.06;;
66335;Laerm;53138;51.496;6.410;2023-10-08T00:27:35;39.51;34.82;45.48;;
66335;Laerm;53138;51.496;6.410;2023-10-08T00:27:49;36.62;33.06;49.26;;
66335;Laerm;53138;51.496;6.410;2023-10-08T00:28:01;35.32;32.69;38.17;;
66335;Laerm;53138;51.496;6.410;2023-10-08T00:28:12;34.35;31.64;40.77;;
66335;Laerm;53138;51.496;6.410;2023-10-08T00:28:23;35.17;31.64;40.09;;
66335;Laerm;53138;51.496;6.410;2023-10-08T00:28:34;42.60;36.89;51.35;;
66335;Laerm;53138;51.496;6.410;2023-10-08T00:28:45;42.26;33.73;48.56;;
66335;Laerm;53138;51.496;6.410;2023-10-08T00:29:01;38.06;32.97;47.88;;
66335;Laerm;53138;51.496;6.410;2023-10-08T00:29:16;37.56;33.45;51.00;;
66335;Laerm;53138;51.496;6.410;2023-10-08T00:29:26;37.04;35.08;40.82;;
66335;Laerm;53138;51.496;6.410;2023-10-08T00:29:37;37.48;34.19;53.07;;
66335;Laerm;53138;51.496;6.410;2023-10-08T00:29:50;35.77;34.10;37.29;;
66335;Laerm;53138;51.496;6.410;2023-10-08T00:30:00;35.22;33.17;36.58;;
66335;Laerm;53138;51.496;6.410;2023-10-08T00:30:16;36.00;33.79;40.17;;
66335;Laerm;53138;51.496;6.410;2023-10-08T00:30:27;36.67;33.85;39.35;;
66335;Laerm;53138;51.496;6.410;2023-10-08T00:30:41;40.06;37.37;44.03;;
66335;Laerm;53138;51.496;6.410;2023-10-08T00:30:51;39.70;37.43;42.85;;
66335;Laerm;53138;51.496;6.410;2023-10-08T00:31:05;39.61;36.27;43.10;;
66335;Laerm;53138;51.496;6.410;2023-10-08T00:31:22;38.95;35.74;46.32;;
66335;Laerm;53138;51.496;6.410;2023-10-08T00:31:36;37.19;34.13;39.72;;
66335;Laerm;53138;51.496;6.410;2023-10-08T00:31:50;36.30;34.11;38.65;;
66335;Laerm;53138;51.496;6.410;2023-10-08T00:32:01;36.99;35.38;39.26;;
66335;Laerm;53138;51.496;6.410;2023-10-08T00:32:21;38.98;35.60;44.38;;
66335;Laerm;53138;51.496;6.410;2023-10-08T00:32:31;37.52;34.97;39.86;;
66335;Laerm;53138;51.496;6.410;2023-10-08T00:32:42;35.81;33.97;38.36;;
66335;Laerm;53138;51.496;6.410;2023-10-08T00:32:52;36.43;34.28;38.72;;
66335;Laerm;53138;51.496;6.410;2023-10-08T00:33:02;36.09;34.74;37.61;;
66335;Laerm;53138;51.496;6.410;2023-10-08T00:33:13;36.06;34.35;38.74;;
66335;Laerm;53138;51.496;6.410;2023-10-08T00:33:24;36.17;33.37;45.65;;
66335;Laerm;53138;51.496;6.410;2023-10-08T00:33:35;36.44;33.68;39.45;;
66335;Laerm;53138;51.496;6.410;2023-10-08T00:33:46;36.11;33.71;41.25;;
66335;Laerm;53138;51.496;6.410;2023-10-08T00:33:56;35.56;33.97;37.13;;
66335;Laerm;53138;51.496;6.410;2023-10-08T00:34:07;35.50;33.79;37.45;;
66335;Laerm;53138;51.496;6.410;2023-10-08T00:34:21;36.19;34.26;38.56;;
66335;Laerm;53138;51.496;6.410;2023-10-08T00:34:31;35.60;33.72;37.55;;
66335;Laerm;53138;51.496;6.410;2023-10-08T00:34:42;35.41;33.49;37.00;;
66335;Laerm;53138;51.496;6.410;2023-10-08T00:34:53;35.06;33.25;38.37;;
66335;Laerm;53138;51.496;6.410;2023-10-08T00:35:05;37.93;34.49;42.19;;
66335;Laerm;53138;51.496;6.410;2023-10-08T00:35:15;37.68;35.31;40.43;;
66335;Laerm;53138;51.496;6.410;2023-10-08T00:35:31;39.21;35.73;42.90;;
66335;Laerm;53138;51.496;6.410;2023-10-08T00:35:42;38.94;36.12;43.24;;
66335;Laerm;53138;51.496;6.410;2023-10-08T00:35:52;36.38;33.85;43.37;;
66335;Laerm;53138;51.496;6.410;2023-10-08T00:36:02;35.22;33.55;42.21;;
66335;Laerm;53138;51.496;6.410;2023-10-08T00:36:27;38.21;34.27;54.98;;
66335;Laerm;53138;51.496;6.410;2023-10-08T00:36:38;38.18;36.44;41.38;;
66335;Laerm;53138;51.496;6.410;2023-10-08T00:36:48;36.38;33.97;38.66;;
66335;Laerm;53138;51.496;6.410;2023-10-08T00:36:59;36.21;34.18;40.59;;
66335;Laerm;53138;51.496;6.410;2023-10-08T00:37:10;35.51;33.69;37.70;;
66335;Laerm;53138;51.496;6.410;2023-10-08T00:37:20;35.62;32.74;40.86;;
66335;Laerm;53138;51.496;6.410;2023-10-08T00:37:33;35.53;33.57;37.57;;
66335;Laerm;53138;51.496;6.410;2023-10-08T00:37:44;37.42;34.85;42.81;;
66335;Laerm;53138;51.496;6.410;2023-10-08T00:37:55;43.42;38.12;49.05;;
66335;Laerm;53138;51.496;6.410;2023-10-08T00:38:10;42.33;36.60;48.99;;
66335;Laerm;53138;51.496;6.410;2023-10-08T00:38:30;36.13;34.04;43.56;;
66335;Laerm;53138;51.496;6.410;2023-10-08T00:38:45;38.20;35.28;47.80;;
66335;Laerm;53138;51.496;6.410;2023-10-08T00:38:57;35.91;33.44;38.09;;
66335;Laerm;53138;51.496;6.410;2023-10-08T00:39:10;35.66;33.81;43.47;;
66335;Laerm;53138;51.496;6.410;2023-10-08T00:39:24;37.88;33.51;41.58;;
66335;Laerm;53138;51.496;6.410;2023-10-08T00:39:37;39.11;36.47;51.40;;
66335;Laerm;53138;51.496;6.410;2023-10-08T00:39:48;37.56;34.50;41.16;;
66335;Laerm;53138;51.496;6.410;2023-10-08T00:39:59;36.62;34.73;42.92;;
66335;Laerm;53138;51.496;6.410;2023-10-08T00:40:10;36.84;34.37;40.39;;
66335;Laerm;53138;51.496;6.410;2023-10-08T00:40:24;38.27;34.67;41.42;;
66335;Laerm;53138;51.496;6.410;2023-10-08T00:40:37;35.98;33.74;38.47;;
66335;Laerm;53138;51.496;6.410;2023-10-08T00:40:49;38.59;35.03;45.03;;
66335;Laerm;53138;51.496;6.410;2023-10-08T00:40:59;38.11;35.43;41.85;;
66335;Laerm;53138;51.496;6.410;2023-10-08T00:41:13;38.56;33.51;45.44;;
66335;Laerm;53138;51.496;6.410;2023-10-08T00:41:24;35.10;33.32;37.00;;
66335;Laerm;53138;51.496;6.410;2023-10-08T00:41:39;35.03;33.12;39.97;;
66335;Laerm;53138;51.496;6.410;2023-10-08T00:41:50;35.20;33.42;37.03;;
66335;Laerm;53138;51.496;6.410;2023-10-08T00:42:00;34.75;33.15;36.56;;
66335;Laerm;53138;51.496;6.410;2023-10-08T00:42:14;34.98;33.11;37.23;;
66335;Laerm;53138;51.496;6.410;2023-10-08T00:42:24;35.09;32.99;36.88;;
66335;Laerm;53138;51.496;6.410;2023-10-08T00:42:35;35.25;33.57;37.31;;
66335;Laerm;53138;51.496;6.410;2023-10-08T00:42:45;34.41;32.45;36.54;;
66335;Laerm;53138;51.496;6.410;2023-10-08T00:42:55;34.51;32.68;36.21;;
66335;Laerm;53138;51.496;6.410;2023-10-08T00:43:06;35.35;33.53;39.11;;
66335;Laerm;53138;51.496;6.410;2023-10-08T00:43:29;35.90;34.11;39.80;;
66335;Laerm;53138;51.496;6.410;2023-10-08T00:43:42;36.59;34.22;40.52;;
66335;Laerm;53138;51.496;6.410;2023-10-08T00:43:55;36.97;35.33;42.71;;
66335;Laerm;53138;51.496;6.410;2023-10-08T00:44:12;35.34;33.51;37.14;;
66335;Laerm;53138;51.496;6.410;2023-10-08T00:44:24;35.33;33.12;37.51;;
66335;Laerm;53138;51.496;6.410;2023-10-08T00:44:39;35.44;32.84;40.95;;
66335;Laerm;53138;51.496;6.410;2023-10-08T00:44:57;34.81;33.12;36.65;;
66335;Laerm;53138;51.496;6.410;2023-10-08T00:45:11;35.45;33.29;38.81;;
66335;Laerm;53138;51.496;6.410;2023-10-08T00:45:23;37.56;34.78;44.70;;
66335;Laerm;53138;51.496;6.410;2023-10-08T00:45:34;38.47;36.49;40.56;;
66335;Laerm;53138;51.496;6.410;2023-10-08T00:45:45;38.64;35.40;51.38;;
66335;Laerm;53138;51.496;6.410;2023-10-08T00:46:03;36.59;33.60;50.73;;
66335;Laerm;53138;51.496;6.410;2023-10-08T00:46:21;35.63;33.19;43.27;;
66335;Laerm;53138;51.496;6.410;2023-10-08T00:46:36;34.85;32.87;43.60;;
66335;Laerm;53138;51.496;6.410;2023-10-08T00:46:49;35.55;33.58;38.36;;
66335;Laerm;53138;51.496;6.410;2023-10-08T00:47:00;34.36;32.38;38.11;;
66335;Laerm;53138;51.496;6.410;2023-10-08T00:47:11;34.79;32.97;36.16;;
66335;Laerm;53138;51.496;6.410;2023-10-08T00:47:22;34.64;32.31;36.27;;
66335;Laerm;53138;51.496;6.410;2023-10-08T00:47:36;34.70;32.68;36.53;;
66335;Laerm;53138;51.496;6.410;2023-10-08T00:47:52;35.40;33.08;39.13;;
66335;Laerm;53138;51.496;6.410;2023-10-08T00:48:06;40.23;35.29;45.67;;
66335;Laerm;53138;51.496;6.410;2023-10-08T00:48:16;40.59;36.57;44.51;;
66335;Laerm;53138;51.496;6.410;2023-10-08T00:48:28;39.15;34.04;46.33;;
66335;Laerm;53138;51.496;6.410;2023-10-08T00:48:45;35.52;32.95;40.05;;
66335;Laerm;53138;51.496;6.410;2023-10-08T00:48:57;34.90;33.23;36.49;;
66335;Laerm;53138;51.496;6.410;2023-10-08T00:49:08;34.63;32.91;36.24;;
66335;Laerm;53138;51.496;6.410;2023-10-08T00:49:42;34.99;33.00;37.63;;
66335;Laerm;53138;51.496;6.410;2023-10-08T00:49:52;34.62;32.52;37.12;;
66335;Laerm;53138;51.496;6.410;2023-10-08T00:50:23;34.79;32.96;37.02;;
66335;Laerm;53138;51.496;6.410;2023-10-08T00:50:41;35.17;32.53;45.26;;
66335;Laerm;53138;51.496;6.410;2023-10-08T00:50:56;35.80;33.19;38.08;;
66335;Laerm;53138;51.496;6.410;2023-10-08T00:51:26;35.18;32.55;50.25;;
66335;Laerm;53138;51.496;6.410;2023-10-08T00:51:41;34.25;32.12;37.07;;
66335;Laerm;53138;51.496;6.410;2023-10-08T00:51:51;34.29;32.87;40.10;;
66335;Laerm;53138;51.496;6.410;2023-10-08T00:52:11;34.33;32.64;36.02;;
66335;Laerm;53138;51.496;6.410;2023-10-08T00:52:22;34.21;32.16;38.35;;
66335;Laerm;53138;51.496;6.410;2023-10-08T00:52:50;35.25;32.28;40.71;;
66335;Laerm;53138;51.496;6.410;2023-10-08T00:53:11;37.18;33.69;41.52;;
66335;Laerm;53138;51.496;6.410;2023-10-08T00:53:31;36.58;33.20;43.28;;
66335;Laerm;53138;51.496;6.410;2023-10-08T00:54:02;34.85;32.99;36.84;;
66335;Laerm;53138;51.496;6.410;2023-10-08T00:54:17;34.94;32.82;37.91;;
66335;Laerm;53138;51.496;6.410;2023-10-08T00:54:27;35.60;33.33;37.66;;
66335;Laerm;53138;51.496;6.410;2023-10-08T00:54:43;40.34;34.27;47.72;;
66335;Laerm;53138;51.496;6.410;2023-10-08T00:55:12;39.54;32.91;47.41;;
66335;Laerm;53138;51.496;6.410;2023-10-08T00:55:31;34.79;32.80;37.65;;
66335;Laerm;53138;51.496;6.410;2023-10-08T00:55:44;34.17;32.49;36.38;;
66335;Laerm;53138;51.496;6.410;2023-10-08T00:56:00;34.59;32.47;40.38;;
66335;Laerm;53138;51.496;6.410;2023-10-08T00:56:17;34.47;32.83;36.15;;
66335;Laerm;53138;51.496;6.410;2023-10-08T00:56:29;36.51;33.07;40.27;;
66335;Laerm;53138;51.496;6.410;2023-10-08T00:56:58;34.45;32.37;37.91;;
66335;Laerm;53138;51.496;6.410;2023-10-08T00:57:12;34.68;32.92;36.98;;
66335;Laerm;53138;51.496;6.410;2023-10-08T00:57:28;35.65;33.86;38.03;;
66335;Laerm;53138;51.496;6.410;2023-10-08T00:57:39;38.71;34.26;44.76;;
66335;Laerm;53138;51.496;6.410;2023-10-08T00:57:52;43.43;37.69;49.44;;
66335;Laerm;53138;51.496;6.410;2023-10-08T00:58:07;39.12;36.10;45.25;;
66335;Laerm;53138;51.496;6.410;2023-10-08T00:58:20;41.12;37.29;45.96;;
66335;Laerm;53138;51.496;6.410;2023-10-08T00:58:37;42.06;36.33;48.41;;
66335;Laerm;53138;51.496;6.410;2023-10-08T00:58:47;35.68;33.41;38.26;;
66335;Laerm;53138;51.496;6.410;2023-10-08T00:59:01;36.57;34.11;45.21;;
66335;Laerm;53138;51.496;6.410;2023-10-08T00:59:13;36.91;34.59;38.94;;
66335;Laerm;53138;51.496;6.410;2023-10-08T00:59:26;35.15;32.99;38.34;;
66335;Laerm;53138;51.496;6.410;2023-10-08T00:59:40;35.82;33.65;38.44;;
66335;Laerm;53138;51.496;6.410;2023-10-08T00:59:55;34.63;33.12;36.13;;
66335;Laerm;53138;51.496;6.410;2023-10-08T01:00:09;34.81;33.19;36.54;;
66335;Laerm;53138;51.496;6.410;2023-10-08T01:00:27;40.04;32.33;49.09;;
66335;Laerm;53138;51.496;6.410;2023-10-08T01:00:47;43.19;37.14;53.87;;
66335;Laerm;53138;51.496;6.410;2023-10-08T01:01:02;39.11;35.68;48.05;;
66335;Laerm;53138;51.496;6.410;2023-10-08T01:01:13;39.12;34.34;44.41;;
66335;Laerm;53138;51.496;6.410;2023-10-08T01:01:26;35.44;33.53;38.05;;
66335;Laerm;53138;51.496;6.410;2023-10-08T01:01:38;34.75;32.58;36.10;;
66335;Laerm;53138;51.496;6.410;2023-10-08T01:01:50;34.80;33.31;36.96;;
66335;Laerm;53138;51.496;6.410;2023-10-08T01:02:09;34.93;33.07;36.50;;
66335;Laerm;53138;51.496;6.410;2023-10-08T01:02:26;34.95;33.06;36.85;;
66335;Laerm;53138;51.496;6.410;2023-10-08T01:02:46;38.04;33.14;44.77;;
66335;Laerm;53138;51.496;6.410;2023-10-08T01:02:59;41.19;36.16;46.85;;
66335;Laerm;53138;51.496;6.410;2023-10-08T01:03:10;41.09;36.78;44.89;;
66335;Laerm;53138;51.496;6.410;2023-10-08T01:03:25;36.58;33.88;39.37;;
66335;Laerm;53138;51.496;6.410;2023-10-08T01:03:37;34.95;32.76;39.04;;
66335;Laerm;53138;51.496;6.410;2023-10-08T01:03:54;35.10;33.27;37.46;;
66335;Laerm;53138;51.496;6.410;2023-10-08T01:04:05;34.79;33.07;37.55;;
66335;Laerm;53138;51.496;6.410;2023-10-08T01:04:22;34.80;32.60;37.24;;
66335;Laerm;53138;51.496;6.410;2023-10-08T01:04:36;37.75;33.25;44.40;;
66335;Laerm;53138;51.496;6.410;2023-10-08T01:04:47;40.42;36.23;46.12;;
66335;Laerm;53138;51.496;6.410;2023-10-08T01:05:00;40.18;34.60;47.11;;
66335;Laerm;53138;51.496;6.410;2023-10-08T01:05:11;35.81;33.85;37.87;;
66335;Laerm;53138;51.496;6.410;2023-10-08T01:05:22;35.20;32.95;38.15;;
66335;Laerm;53138;51.496;6.410;2023-10-08T01:05:48;41.95;33.98;52.01;;
66335;Laerm;53138;51.496;6.410;2023-10-08T01:05:58;35.88;32.66;39.49;;
66335;Laerm;53138;51.496;6.410;2023-10-08T01:06:09;34.50;32.96;36.25;;
66335;Laerm;53138;51.496;6.410;2023-10-08T01:06:21;35.43;33.25;38.24;;
66335;Laerm;53138;51.496;6.410;2023-10-08T01:06:31;35.48;33.79;42.46;;
66335;Laerm;53138;51.496;6.410;2023-10-08T01:06:41;36.33;34.69;39.20;;
66335;Laerm;53138;51.496;6.410;2023-10-08T01:06:52;37.34;34.26;42.85;;
66335;Laerm;53138;51.496;6.410;2023-10-08T01:07:10;43.40;34.94;50.84;;
66335;Laerm;53138;51.496;6.410;2023-10-08T01:07:23;42.52;33.84;51.60;;
66335;Laerm;53138;51.496;6.410;2023-10-08T01:07:35;36.00;33.80;40.19;;
66335;Laerm;53138;51.496;6.410;2023-10-08T01:07:45;34.48;32.48;36.13;;
66335;Laerm;53138;51.496;6.410;2023-10-08T01:07:58;34.30;32.17;42.68;;
66335;Laerm;53138;51.496;6.410;2023-10-08T01:08:09;34.32;32.50;36.19;;
66335;Laerm;53138;51.496;6.410;2023-10-08T01:08:24;34.15;32.44;35.85;;
66335;Laerm;53138;51.496;6.410;2023-10-08T01:08:46;34.62;32.44;45.96;;
66335;Laerm;53138;51.496;6.410;2023-10-08T01:09:07;34.90;32.80;42.78;;
66335;Laerm;53138;51.496;6.410;2023-10-08T01:09:28;35.06;32.96;38.43;;
66335;Laerm;53138;51.496;6.410;2023-10-08T01:09:47;34.64;32.61;36.96;;
66335;Laerm;53138;51.496;6.410;2023-10-08T01:10:01;34.76;32.82;37.50;;
66335;Laerm;53138;51.496;6.410;2023-10-08T01:10:23;34.53;32.96;36.90;;
66335;Laerm;53138;51.496;6.410;2023-10-08T01:10:35;35.24;33.22;37.20;;
66335;Laerm;53138;51.496;6.410;2023-10-08T01:10:45;35.18;33.25;39.46;;
66335;Laerm;53138;51.496;6.410;2023-10-08T01:10:57;34.70;32.78;36.67;;
66335;Laerm;53138;51.496;6.410;2023-10-08T01:11:20;35.58;33.36;38.89;;
66335;Laerm;53138;51.496;6.410;2023-10-08T01:11:36;34.79;32.78;42.29;;
66335;Laerm;53138;51.496;6.410;2023-10-08T01:12:15;34.69;32.72;36.71;;
66335;Laerm;53138;51.496;6.410;2023-10-08T01:12:26;34.45;32.28;36.90;;
66335;Laerm;53138;51.496;6.410;2023-10-08T01:12:36;34.26;32.32;35.56;;
66335;Laerm;53138;51.496;6.410;2023-10-08T01:12:54;35.38;32.82;40.01;;
66335;Laerm;53138;51.496;6.410;2023-10-08T01:13:04;37.92;34.12;46.35;;
66335;Laerm;53138;51.496;6.410;2023-10-08T01:13:16;40.49;35.10;47.48;;
66335;Laerm;53138;51.496;6.410;2023-10-08T01:13:30;35.47;32.18;40.20;;
66335;Laerm;53138;51.496;6.410;2023-10-08T01:13:53;34.30;32.46;35.97;;
66335;Laerm;53138;51.496;6.410;2023-10-08T01:14:05;34.44;32.68;36.42;;
66335;Laerm;53138;51.496;6.410;2023-10-08T01:14:17;34.39;32.29;41.17;;
66335;Laerm;53138;51.496;6.410;2023-10-08T01:14:35;34.44;32.10;36.47;;
66335;Laerm;53138;51.496;6.410;2023-10-08T01:14:45;34.20;32.44;36.05;;
66335;Laerm;53138;51.496;6.410;2023-10-08T01:14:56;34.54;33.16;36.05;;
66335;Laerm;53138;51.496;6.410;2023-10-08T01:15:23;34.44;32.58;39.95;;
66335;Laerm;53138;51.496;6.410;2023-10-08T01:15:34;34.04;32.46;35.79;;
66335;Laerm;53138;51.496;6.410;2023-10-08T01:15:47;34.37;32.32;36.18;;
66335;Laerm;53138;51.496;6.410;2023-10-08T01:16:01;35.23;31.67;49.32;;
66335;Laerm;53138;51.496;6.410;2023-10-08T01:16:12;34.28;32.81;37.23;;
66335;Laerm;53138;51.496;6.410;2023-10-08T01:16:22;35.86;32.54;39.55;;
66335;Laerm;53138;51.496;6.410;2023-10-08T01:16:33;39.52;35.06;43.81;;